createdAt,value
2023-01-22T00:00:07.634Z,1028.09
2023-01-22T00:01:07.623Z,1028.12
2023-01-22T00:02:07.280Z,1028.13
2023-01-22T00:03:07.843Z,1028.17
2023-01-22T00:04:07.716Z,1028.21
2023-01-22T00:05:07.575Z,1028.11
2023-01-22T00:06:07.873Z,1028.06
2023-01-22T00:07:07.581Z,1028.01
2023-01-22T00:08:07.549Z,1028.03
2023-01-22T00:09:07.535Z,1028.03
2023-01-22T00:10:07.523Z,1028.03
2023-01-22T00:11:06.838Z,1028.01
2023-01-22T00:12:07.496Z,1028.02
2023-01-22T00:13:06.818Z,1028.00
2023-01-22T00:14:07.511Z,1028.10
2023-01-22T00:15:07.464Z,1028.03
2023-01-22T00:16:06.889Z,1027.99
2023-01-22T00:17:07.455Z,1027.94
2023-01-22T00:18:07.442Z,1027.91
2023-01-22T00:19:07.426Z,1027.88
2023-01-22T00:20:06.784Z,1027.83
2023-01-22T00:21:07.559Z,1027.84
2023-01-22T00:22:07.407Z,1027.89
2023-01-22T00:23:06.720Z,1027.94
2023-01-22T00:24:07.376Z,1027.92
2023-01-22T00:25:06.685Z,1027.87
2023-01-22T00:26:07.350Z,1027.89
2023-01-22T00:27:07.349Z,1027.90
2023-01-22T00:28:06.826Z,1027.87
2023-01-22T00:29:07.331Z,1027.93
2023-01-22T00:30:07.313Z,1027.93
2023-01-22T00:31:07.403Z,1027.93
2023-01-22T00:32:07.416Z,1027.83
2023-01-22T00:33:07.283Z,1027.79
2023-01-22T00:34:06.676Z,1027.74
2023-01-22T00:35:07.512Z,1027.76
2023-01-22T00:36:07.246Z,1027.73
2023-01-22T00:37:07.237Z,1027.73
2023-01-22T00:38:07.555Z,1027.65
2023-01-22T00:39:06.517Z,1027.61
2023-01-22T00:40:07.206Z,1027.60
2023-01-22T00:41:06.538Z,1027.61
2023-01-22T00:42:06.497Z,1027.54
2023-01-22T00:43:06.478Z,1027.53
2023-01-22T00:44:07.170Z,1027.57
2023-01-22T00:45:07.148Z,1027.58
2023-01-22T00:46:07.257Z,1027.57
2023-01-22T00:47:07.128Z,1027.56
2023-01-22T00:48:07.118Z,1027.59
2023-01-22T00:49:07.132Z,1027.54
2023-01-22T00:50:07.104Z,1027.50
2023-01-22T00:51:06.436Z,1027.51
2023-01-22T00:52:06.439Z,1027.53
2023-01-22T00:53:07.065Z,1027.48
2023-01-22T00:54:07.085Z,1027.48
2023-01-22T00:55:07.054Z,1027.46
2023-01-22T00:56:07.036Z,1027.43
2023-01-22T00:57:07.033Z,1027.41
2023-01-22T00:58:07.008Z,1027.39
2023-01-22T00:59:07.016Z,1027.45
2023-01-22T01:00:06.443Z,1027.52
2023-01-22T01:01:07.019Z,1027.45
2023-01-22T01:02:06.351Z,1027.39
2023-01-22T01:03:06.283Z,1027.41
2023-01-22T01:04:06.396Z,1027.42
2023-01-22T01:05:06.962Z,1027.46
2023-01-22T01:06:06.937Z,1027.45
2023-01-22T01:07:06.921Z,1027.44
2023-01-22T01:08:06.238Z,1027.49
2023-01-22T01:09:06.253Z,1027.52
2023-01-22T01:10:07.192Z,1027.51
2023-01-22T01:11:06.907Z,1027.46
2023-01-22T01:12:06.877Z,1027.58
2023-01-22T01:13:06.872Z,1027.45
2023-01-22T01:14:07.045Z,1027.45
2023-01-22T01:15:06.164Z,1027.40
2023-01-22T01:16:06.248Z,1027.37
2023-01-22T01:17:06.129Z,1027.40
2023-01-22T01:18:06.815Z,1027.37
2023-01-22T01:19:06.793Z,1027.40
2023-01-22T01:20:06.792Z,1027.39
2023-01-22T01:21:06.093Z,1027.40
2023-01-22T01:22:06.797Z,1027.40
2023-01-22T01:23:06.081Z,1027.46
2023-01-22T01:24:06.745Z,1027.46
2023-01-22T01:25:06.080Z,1027.42
2023-01-22T01:26:06.742Z,1027.37
2023-01-22T01:27:06.043Z,1027.36
2023-01-22T01:28:06.704Z,1027.41
2023-01-22T01:29:06.005Z,1027.50
2023-01-22T01:30:06.673Z,1027.50
2023-01-22T01:31:06.802Z,1027.47
2023-01-22T01:32:05.970Z,1027.53
2023-01-22T01:33:06.018Z,1027.46
2023-01-22T01:34:06.064Z,1027.39
2023-01-22T01:35:06.636Z,1027.38
2023-01-22T01:36:06.613Z,1027.39
2023-01-22T01:37:05.955Z,1027.37
2023-01-22T01:38:05.925Z,1027.34
2023-01-22T01:39:05.916Z,1027.40
2023-01-22T01:40:05.906Z,1027.44
2023-01-22T01:41:06.573Z,1027.46
2023-01-22T01:42:05.868Z,1027.43
2023-01-22T01:43:05.866Z,1027.41
2023-01-22T01:44:05.845Z,1027.44
2023-01-22T01:45:05.844Z,1027.41
2023-01-22T01:46:05.869Z,1027.39
2023-01-22T01:47:05.822Z,1027.45
2023-01-22T01:48:05.815Z,1027.42
2023-01-22T01:49:06.494Z,1027.39
2023-01-22T01:50:05.805Z,1027.44
2023-01-22T01:51:05.967Z,1027.38
2023-01-22T01:52:05.795Z,1027.50
2023-01-22T01:53:06.442Z,1027.42
2023-01-22T01:54:05.761Z,1027.39
2023-01-22T01:55:06.417Z,1027.49
2023-01-22T01:56:05.854Z,1027.33
2023-01-22T01:57:06.402Z,1027.36
2023-01-22T01:58:06.406Z,1027.37
2023-01-22T01:59:05.698Z,1027.31
2023-01-22T02:00:06.372Z,1027.34
2023-01-22T02:01:05.763Z,1027.24
2023-01-22T02:02:05.674Z,1027.27
2023-01-22T02:03:05.647Z,1027.35
2023-01-22T02:04:06.326Z,1027.27
2023-01-22T02:05:06.318Z,1027.32
2023-01-22T02:06:06.309Z,1027.27
2023-01-22T02:07:06.398Z,1027.36
2023-01-22T02:08:06.289Z,1027.25
2023-01-22T02:09:05.595Z,1027.30
2023-01-22T02:10:06.309Z,1027.36
2023-01-22T02:11:06.257Z,1027.41
2023-01-22T02:12:06.249Z,1027.38
2023-01-22T02:13:06.252Z,1027.31
2023-01-22T02:14:05.518Z,1027.32
2023-01-22T02:15:05.537Z,1027.34
2023-01-22T02:16:05.594Z,1027.28
2023-01-22T02:17:06.193Z,1027.23
2023-01-22T02:18:06.197Z,1027.28
2023-01-22T02:19:06.176Z,1027.29
2023-01-22T02:20:06.160Z,1027.29
2023-01-22T02:21:05.472Z,1027.31
2023-01-22T02:22:06.141Z,1027.24
2023-01-22T02:23:05.449Z,1027.22
2023-01-22T02:24:05.441Z,1027.18
2023-01-22T02:25:06.114Z,1027.16
2023-01-22T02:26:05.437Z,1027.25
2023-01-22T02:27:06.089Z,1027.33
2023-01-22T02:28:05.423Z,1027.28
2023-01-22T02:29:06.079Z,1027.37
2023-01-22T02:30:06.082Z,1027.27
2023-01-22T02:31:06.118Z,1027.32
2023-01-22T02:32:06.053Z,1027.25
2023-01-22T02:33:05.347Z,1027.34
2023-01-22T02:34:06.024Z,1027.29
2023-01-22T02:35:06.015Z,1027.27
2023-01-22T02:36:05.333Z,1027.32
2023-01-22T02:37:05.991Z,1027.23
2023-01-22T02:38:05.286Z,1027.27
2023-01-22T02:39:05.296Z,1027.22
2023-01-22T02:40:05.309Z,1027.30
2023-01-22T02:41:05.275Z,1027.30
2023-01-22T02:42:05.929Z,1027.26
2023-01-22T02:43:05.930Z,1027.31
2023-01-22T02:44:05.231Z,1027.27
2023-01-22T02:45:05.222Z,1027.26
2023-01-22T02:46:05.308Z,1027.24
2023-01-22T02:47:05.908Z,1027.27
2023-01-22T02:48:05.872Z,1027.27
2023-01-22T02:49:05.867Z,1027.26
2023-01-22T02:50:06.229Z,1027.19
2023-01-22T02:51:05.867Z,1027.24
2023-01-22T02:52:05.197Z,1027.28
2023-01-22T02:53:05.845Z,1027.24
2023-01-22T02:54:05.818Z,1027.21
2023-01-22T02:55:05.794Z,1027.20
2023-01-22T02:56:05.796Z,1027.15
2023-01-22T02:57:05.354Z,1027.12
2023-01-22T02:58:05.213Z,1027.13
2023-01-22T02:59:05.771Z,1027.16
2023-01-22T03:00:05.754Z,1027.14
2023-01-22T03:01:05.114Z,1027.13
2023-01-22T03:02:05.089Z,1027.15
2023-01-22T03:03:05.732Z,1027.13
2023-01-22T03:04:05.718Z,1027.12
2023-01-22T03:05:05.038Z,1027.12
2023-01-22T03:06:05.689Z,1027.07
2023-01-22T03:07:05.676Z,1027.17
2023-01-22T03:08:04.964Z,1027.10
2023-01-22T03:09:05.659Z,1027.10
2023-01-22T03:10:05.083Z,1027.12
2023-01-22T03:11:05.647Z,1027.07
2023-01-22T03:12:05.624Z,1027.11
2023-01-22T03:13:05.626Z,1027.07
2023-01-22T03:14:04.912Z,1027.04
2023-01-22T03:15:04.921Z,1027.01
2023-01-22T03:16:05.183Z,1027.02
2023-01-22T03:17:05.568Z,1027.04
2023-01-22T03:18:05.565Z,1026.99
2023-01-22T03:19:04.875Z,1026.99
2023-01-22T03:20:04.863Z,1026.95
2023-01-22T03:21:04.858Z,1026.89
2023-01-22T03:22:04.871Z,1026.87
2023-01-22T03:23:05.526Z,1026.94
2023-01-22T03:24:04.809Z,1026.88
2023-01-22T03:25:04.807Z,1026.85
2023-01-22T03:26:05.485Z,1026.88
2023-01-22T03:27:04.821Z,1026.89
2023-01-22T03:28:04.880Z,1026.94
2023-01-22T03:29:04.759Z,1026.92
2023-01-22T03:30:05.448Z,1026.96
2023-01-22T03:31:05.460Z,1026.89
2023-01-22T03:32:04.774Z,1026.90
2023-01-22T03:33:05.415Z,1026.95
2023-01-22T03:34:04.745Z,1026.88
2023-01-22T03:35:05.392Z,1026.84
2023-01-22T03:36:04.701Z,1026.89
2023-01-22T03:37:05.378Z,1026.89
2023-01-22T03:38:05.361Z,1026.92
2023-01-22T03:39:04.668Z,1026.92
2023-01-22T03:40:05.429Z,1026.89
2023-01-22T03:41:05.332Z,1026.86
2023-01-22T03:42:05.320Z,1026.91
2023-01-22T03:43:05.305Z,1026.90
2023-01-22T03:44:04.624Z,1026.87
2023-01-22T03:45:05.282Z,1026.89
2023-01-22T03:46:05.323Z,1026.95
2023-01-22T03:47:04.581Z,1026.93
2023-01-22T03:48:05.267Z,1026.93
2023-01-22T03:49:04.568Z,1026.93
2023-01-22T03:50:04.542Z,1026.92
2023-01-22T03:51:05.241Z,1026.93
2023-01-22T03:52:04.620Z,1026.97
2023-01-22T03:53:05.216Z,1026.95
2023-01-22T03:54:04.541Z,1026.96
2023-01-22T03:55:04.500Z,1026.91
2023-01-22T03:56:04.482Z,1027.01
2023-01-22T03:57:04.480Z,1026.94
2023-01-22T03:58:05.142Z,1026.86
2023-01-22T03:59:05.151Z,1026.99
2023-01-22T04:00:04.432Z,1026.91
2023-01-22T04:01:05.168Z,1026.93
2023-01-22T04:02:05.135Z,1026.94
2023-01-22T04:03:05.101Z,1026.86
2023-01-22T04:04:04.424Z,1026.96
2023-01-22T04:05:04.430Z,1026.86
2023-01-22T04:06:05.330Z,1026.89
2023-01-22T04:07:05.064Z,1026.92
2023-01-22T04:08:04.344Z,1026.86
2023-01-22T04:09:04.365Z,1027.01
2023-01-22T04:10:05.382Z,1026.90
2023-01-22T04:11:05.773Z,1026.90
2023-01-22T04:12:05.003Z,1026.92
2023-01-22T04:13:05.011Z,1026.90
2023-01-22T04:14:04.980Z,1026.85
2023-01-22T04:15:04.978Z,1026.90
2023-01-22T04:16:04.350Z,1026.89
2023-01-22T04:17:04.302Z,1026.93
2023-01-22T04:18:04.950Z,1026.85
2023-01-22T04:19:04.939Z,1026.88
2023-01-22T04:20:04.231Z,1026.90
2023-01-22T04:21:04.913Z,1026.85
2023-01-22T04:22:04.242Z,1026.92
2023-01-22T04:23:04.200Z,1026.92
2023-01-22T04:24:04.864Z,1026.94
2023-01-22T04:25:04.185Z,1027.03
2023-01-22T04:26:04.183Z,1026.98
2023-01-22T04:27:04.165Z,1026.95
2023-01-22T04:28:04.820Z,1026.97
2023-01-22T04:29:04.827Z,1026.96
2023-01-22T04:30:04.649Z,1026.99
2023-01-22T04:31:04.969Z,1026.96
2023-01-22T04:32:04.098Z,1026.98
2023-01-22T04:33:04.781Z,1026.96
2023-01-22T04:34:04.097Z,1026.99
2023-01-22T04:35:04.764Z,1027.00
2023-01-22T04:36:04.069Z,1026.98
2023-01-22T04:37:04.056Z,1026.86
2023-01-22T04:38:04.045Z,1026.97
2023-01-22T04:39:04.723Z,1026.90
2023-01-22T04:40:04.025Z,1026.91
2023-01-22T04:41:04.066Z,1026.89
2023-01-22T04:42:04.001Z,1026.90
2023-01-22T04:43:04.687Z,1026.94
2023-01-22T04:44:03.975Z,1026.94
2023-01-22T04:45:04.657Z,1026.97
2023-01-22T04:46:04.679Z,1026.95
2023-01-22T04:47:03.969Z,1026.98
2023-01-22T04:48:03.946Z,1026.87
2023-01-22T04:49:03.933Z,1026.88
2023-01-22T04:50:04.211Z,1026.89
2023-01-22T04:51:04.620Z,1026.85
2023-01-22T04:52:05.322Z,1026.88
2023-01-22T04:53:04.566Z,1026.85
2023-01-22T04:54:04.546Z,1026.92
2023-01-22T04:55:03.866Z,1026.90
2023-01-22T04:56:04.541Z,1026.90
2023-01-22T04:57:03.886Z,1026.94
2023-01-22T04:58:03.817Z,1026.94
2023-01-22T04:59:04.511Z,1026.90
2023-01-22T05:00:04.488Z,1026.90
2023-01-22T05:01:03.909Z,1026.93
2023-01-22T05:02:04.478Z,1026.91
2023-01-22T05:03:03.820Z,1026.89
2023-01-22T05:04:03.783Z,1026.94
2023-01-22T05:05:03.769Z,1026.89
2023-01-22T05:06:03.749Z,1026.90
2023-01-22T05:07:03.752Z,1026.92
2023-01-22T05:08:04.416Z,1026.85
2023-01-22T05:09:03.751Z,1026.89
2023-01-22T05:10:04.378Z,1026.87
2023-01-22T05:11:04.379Z,1026.91
2023-01-22T05:12:04.418Z,1026.91
2023-01-22T05:13:04.358Z,1026.85
2023-01-22T05:14:04.388Z,1026.85
2023-01-22T05:15:15.088Z,1026.86
2023-01-22T05:16:04.677Z,1026.79
2023-01-22T05:17:04.316Z,1026.90
2023-01-22T05:18:04.359Z,1026.81
2023-01-22T05:19:03.609Z,1026.86
2023-01-22T05:20:04.284Z,1026.86
2023-01-22T05:21:04.257Z,1026.92
2023-01-22T05:22:04.260Z,1026.91
2023-01-22T05:23:04.251Z,1026.88
2023-01-22T05:24:03.554Z,1026.89
2023-01-22T05:25:04.229Z,1026.89
2023-01-22T05:26:03.559Z,1026.89
2023-01-22T05:27:03.549Z,1026.90
2023-01-22T05:28:04.205Z,1026.90
2023-01-22T05:29:04.194Z,1026.91
2023-01-22T05:30:03.480Z,1026.95
2023-01-22T05:31:04.340Z,1027.00
2023-01-22T05:32:03.463Z,1026.92
2023-01-22T05:33:04.139Z,1026.96
2023-01-22T05:34:04.133Z,1026.87
2023-01-22T05:35:04.120Z,1026.96
2023-01-22T05:36:04.118Z,1026.92
2023-01-22T05:37:04.361Z,1026.95
2023-01-22T05:38:04.091Z,1026.99
2023-01-22T05:39:04.087Z,1026.89
2023-01-22T05:40:05.839Z,1026.94
2023-01-22T05:41:04.799Z,1026.97
2023-01-22T05:42:03.358Z,1026.95
2023-01-22T05:43:04.038Z,1026.97
2023-01-22T05:44:03.359Z,1026.97
2023-01-22T05:45:04.023Z,1027.03
2023-01-22T05:46:04.055Z,1027.00
2023-01-22T05:47:04.006Z,1027.00
2023-01-22T05:48:03.292Z,1027.01
2023-01-22T05:49:03.308Z,1027.03
2023-01-22T05:50:03.959Z,1027.05
2023-01-22T05:51:03.471Z,1027.03
2023-01-22T05:52:03.981Z,1027.06
2023-01-22T05:53:03.936Z,1027.02
2023-01-22T05:54:03.257Z,1027.02
2023-01-22T05:55:03.931Z,1027.03
2023-01-22T05:56:03.906Z,1026.95
2023-01-22T05:57:03.883Z,1026.99
2023-01-22T05:58:06.248Z,1026.93
2023-01-22T05:59:03.182Z,1027.02
2023-01-22T06:00:03.175Z,1026.93
2023-01-22T06:01:03.855Z,1026.91
2023-01-22T06:02:03.847Z,1026.94
2023-01-22T06:03:03.822Z,1026.93
2023-01-22T06:04:03.821Z,1026.92
2023-01-22T06:05:03.897Z,1026.97
2023-01-22T06:06:03.139Z,1026.97
2023-01-22T06:07:03.793Z,1026.95
2023-01-22T06:08:03.802Z,1026.95
2023-01-22T06:09:03.778Z,1026.93
2023-01-22T06:10:03.762Z,1026.88
2023-01-22T06:11:03.746Z,1026.88
2023-01-22T06:12:03.065Z,1026.90
2023-01-22T06:13:03.071Z,1026.85
2023-01-22T06:14:03.988Z,1026.90
2023-01-22T06:15:03.094Z,1026.93
2023-01-22T06:16:03.763Z,1026.90
2023-01-22T06:17:03.687Z,1026.93
2023-01-22T06:18:02.990Z,1026.89
2023-01-22T06:19:03.896Z,1026.92
2023-01-22T06:20:03.816Z,1026.95
2023-01-22T06:21:03.021Z,1026.95
2023-01-22T06:22:03.886Z,1026.90
2023-01-22T06:23:03.884Z,1026.88
2023-01-22T06:24:03.910Z,1026.93
2023-01-22T06:25:03.881Z,1026.83
2023-01-22T06:26:03.860Z,1026.87
2023-01-22T06:27:03.586Z,1026.88
2023-01-22T06:28:04.332Z,1026.91
2023-01-22T06:29:03.808Z,1026.83
2023-01-22T06:30:03.555Z,1026.82
2023-01-22T06:31:03.922Z,1026.87
2023-01-22T06:32:03.771Z,1026.86
2023-01-22T06:33:03.894Z,1026.86
2023-01-22T06:34:03.509Z,1026.85
2023-01-22T06:35:03.753Z,1026.87
2023-01-22T06:36:03.488Z,1026.86
2023-01-22T06:37:03.514Z,1026.85
2023-01-22T06:38:04.221Z,1026.89
2023-01-22T06:39:05.260Z,1026.91
2023-01-22T06:40:03.726Z,1026.88
2023-01-22T06:41:03.436Z,1026.88
2023-01-22T06:42:03.697Z,1026.92
2023-01-22T06:43:03.418Z,1026.96
2023-01-22T06:44:03.673Z,1026.93
2023-01-22T06:45:03.397Z,1026.97
2023-01-22T06:46:03.669Z,1026.98
2023-01-22T06:47:03.377Z,1026.92
2023-01-22T06:48:03.653Z,1026.95
2023-01-22T06:49:03.374Z,1026.94
2023-01-22T06:50:03.648Z,1026.93
2023-01-22T06:51:03.708Z,1026.94
2023-01-22T06:52:03.585Z,1026.96
2023-01-22T06:53:03.311Z,1027.03
2023-01-22T06:54:03.303Z,1027.02
2023-01-22T06:55:02.633Z,1026.96
2023-01-22T06:56:02.642Z,1027.01
2023-01-22T06:57:02.772Z,1027.00
2023-01-22T06:58:02.562Z,1027.06
2023-01-22T06:59:02.560Z,1027.10
2023-01-22T07:00:03.245Z,1027.10
2023-01-22T07:01:03.493Z,1027.06
2023-01-22T07:02:03.226Z,1027.09
2023-01-22T07:03:03.201Z,1027.04
2023-01-22T07:04:03.484Z,1027.05
2023-01-22T07:05:02.491Z,1027.12
2023-01-22T07:06:03.197Z,1027.06
2023-01-22T07:07:03.167Z,1027.10
2023-01-22T07:08:03.182Z,1027.04
2023-01-22T07:09:03.222Z,1027.09
2023-01-22T07:10:03.411Z,1027.06
2023-01-22T07:11:02.443Z,1027.11
2023-01-22T07:12:02.445Z,1027.13
2023-01-22T07:13:02.430Z,1027.06
2023-01-22T07:14:03.090Z,1027.12
2023-01-22T07:15:03.418Z,1027.11
2023-01-22T07:16:03.852Z,1027.13
2023-01-22T07:17:02.416Z,1027.17
2023-01-22T07:18:03.073Z,1027.15
2023-01-22T07:19:03.694Z,1027.17
2023-01-22T07:20:03.260Z,1027.19
2023-01-22T07:21:03.103Z,1027.18
2023-01-22T07:22:03.060Z,1027.15
2023-01-22T07:23:02.315Z,1027.13
2023-01-22T07:24:03.301Z,1027.16
2023-01-22T07:25:03.243Z,1027.25
2023-01-22T07:26:03.223Z,1027.19
2023-01-22T07:27:03.248Z,1027.22
2023-01-22T07:28:03.198Z,1027.21
2023-01-22T07:29:03.179Z,1027.30
2023-01-22T07:30:03.219Z,1027.29
2023-01-22T07:31:03.377Z,1027.32
2023-01-22T07:32:03.145Z,1027.34
2023-01-22T07:33:04.188Z,1027.32
2023-01-22T07:34:03.155Z,1027.32
2023-01-22T07:35:02.877Z,1027.32
2023-01-22T07:36:03.135Z,1027.33
2023-01-22T07:37:03.083Z,1027.30
2023-01-22T07:38:02.848Z,1027.33
2023-01-22T07:39:03.087Z,1027.32
2023-01-22T07:40:03.073Z,1027.37
2023-01-22T07:41:04.360Z,1027.40
2023-01-22T07:42:03.036Z,1027.36
2023-01-22T07:43:02.808Z,1027.43
2023-01-22T07:44:03.033Z,1027.42
2023-01-22T07:45:03.128Z,1027.39
2023-01-22T07:46:02.758Z,1027.40
2023-01-22T07:47:02.748Z,1027.44
2023-01-22T07:48:04.022Z,1027.45
2023-01-22T07:49:02.733Z,1027.44
2023-01-22T07:50:02.983Z,1027.43
2023-01-22T07:51:02.810Z,1027.48
2023-01-22T07:52:02.696Z,1027.47
2023-01-22T07:53:02.694Z,1027.45
2023-01-22T07:54:02.685Z,1027.51
2023-01-22T07:55:02.920Z,1027.55
2023-01-22T07:56:02.908Z,1027.60
2023-01-22T07:57:02.931Z,1027.55
2023-01-22T07:58:02.949Z,1027.50
2023-01-22T07:59:02.879Z,1027.49
2023-01-22T08:00:02.625Z,1027.54
2023-01-22T08:01:04.003Z,1027.57
2023-01-22T08:02:03.961Z,1027.52
2023-01-22T08:03:02.559Z,1027.55
2023-01-22T08:04:01.888Z,1027.56
2023-01-22T08:05:02.568Z,1027.54
2023-01-22T08:06:02.552Z,1027.54
2023-01-22T08:07:01.855Z,1027.62
2023-01-22T08:08:02.519Z,1027.62
2023-01-22T08:09:02.519Z,1027.62
2023-01-22T08:10:02.509Z,1027.62
2023-01-22T08:11:01.820Z,1027.67
2023-01-22T08:12:02.777Z,1027.68
2023-01-22T08:13:02.511Z,1027.70
2023-01-22T08:14:02.773Z,1027.73
2023-01-22T08:15:02.701Z,1027.70
2023-01-22T08:16:01.821Z,1027.65
2023-01-22T08:17:02.709Z,1027.64
2023-01-22T08:18:02.439Z,1027.64
2023-01-22T08:19:01.741Z,1027.69
2023-01-22T08:20:02.411Z,1027.69
2023-01-22T08:21:01.735Z,1027.69
2023-01-22T08:22:02.398Z,1027.68
2023-01-22T08:23:01.703Z,1027.66
2023-01-22T08:24:02.610Z,1027.72
2023-01-22T08:25:02.374Z,1027.73
2023-01-22T08:26:02.342Z,1027.72
2023-01-22T08:27:02.582Z,1027.72
2023-01-22T08:28:02.573Z,1027.76
2023-01-22T08:29:05.972Z,1027.79
2023-01-22T08:30:03.561Z,1027.77
2023-01-22T08:31:02.623Z,1027.68
2023-01-22T08:32:02.722Z,1027.73
2023-01-22T08:33:02.272Z,1027.76
2023-01-22T08:34:02.520Z,1027.78
2023-01-22T08:35:01.573Z,1027.72
2023-01-22T08:36:02.242Z,1027.73
2023-01-22T08:37:02.242Z,1027.79
2023-01-22T08:38:02.224Z,1027.73
2023-01-22T08:39:02.210Z,1027.78
2023-01-22T08:40:02.200Z,1027.75
2023-01-22T08:41:01.587Z,1027.69
2023-01-22T08:42:01.543Z,1027.72
2023-01-22T08:43:02.169Z,1027.73
2023-01-22T08:44:01.568Z,1027.75
2023-01-22T08:45:02.425Z,1027.79
2023-01-22T08:46:02.161Z,1027.80
2023-01-22T08:47:02.420Z,1027.76
2023-01-22T08:48:01.658Z,1027.83
2023-01-22T08:49:02.107Z,1027.76
2023-01-22T08:50:02.082Z,1027.79
2023-01-22T08:51:02.123Z,1027.78
2023-01-22T08:52:02.330Z,1027.78
2023-01-22T08:53:01.365Z,1027.76
2023-01-22T08:54:01.368Z,1027.79
2023-01-22T08:55:02.042Z,1027.82
2023-01-22T08:56:02.332Z,1027.80
2023-01-22T08:57:02.030Z,1027.80
2023-01-22T08:58:02.019Z,1027.88
2023-01-22T08:59:01.315Z,1027.87
2023-01-22T09:00:02.109Z,1027.87
2023-01-22T09:01:02.038Z,1027.89
2023-01-22T09:02:01.405Z,1027.96
2023-01-22T09:03:01.986Z,1027.92
2023-01-22T09:04:01.951Z,1027.93
2023-01-22T09:05:01.258Z,1027.95
2023-01-22T09:06:01.934Z,1027.93
2023-01-22T09:07:01.922Z,1027.93
2023-01-22T09:08:01.302Z,1027.96
2023-01-22T09:09:01.899Z,1027.97
2023-01-22T09:10:01.888Z,1027.93
2023-01-22T09:11:01.195Z,1027.93
2023-01-22T09:12:01.867Z,1027.94
2023-01-22T09:13:01.856Z,1027.87
2023-01-22T09:14:01.859Z,1027.96
2023-01-22T09:15:01.833Z,1027.95
2023-01-22T09:16:01.136Z,1027.93
2023-01-22T09:17:01.136Z,1027.93
2023-01-22T09:18:01.116Z,1027.97
2023-01-22T09:19:01.815Z,1027.95
2023-01-22T09:20:01.789Z,1028.00
2023-01-22T09:21:01.787Z,1028.02
2023-01-22T09:22:01.772Z,1027.97
2023-01-22T09:23:01.077Z,1028.01
2023-01-22T09:24:01.085Z,1028.00
2023-01-22T09:25:01.732Z,1027.98
2023-01-22T09:26:01.145Z,1027.96
2023-01-22T09:27:01.711Z,1027.97
2023-01-22T09:28:01.705Z,1028.05
2023-01-22T09:29:01.054Z,1028.02
2023-01-22T09:30:01.704Z,1028.04
2023-01-22T09:31:01.732Z,1028.05
2023-01-22T09:32:01.071Z,1028.04
2023-01-22T09:33:01.651Z,1028.03
2023-01-22T09:34:00.986Z,1028.03
2023-01-22T09:35:01.639Z,1027.96
2023-01-22T09:36:00.963Z,1028.02
2023-01-22T09:37:00.939Z,1027.99
2023-01-22T09:38:00.968Z,1027.99
2023-01-22T09:39:01.643Z,1028.00
2023-01-22T09:40:01.593Z,1027.97
2023-01-22T09:41:00.884Z,1027.97
2023-01-22T09:42:01.587Z,1027.97
2023-01-22T09:43:00.887Z,1028.00
2023-01-22T09:44:01.022Z,1027.98
2023-01-22T09:45:00.898Z,1028.00
2023-01-22T09:46:00.907Z,1027.97
2023-01-22T09:47:01.545Z,1028.01
2023-01-22T09:48:01.583Z,1028.01
2023-01-22T09:49:01.489Z,1028.01
2023-01-22T09:50:00.877Z,1028.03
2023-01-22T09:51:01.535Z,1028.01
2023-01-22T09:52:03.166Z,1028.05
2023-01-22T09:53:01.443Z,1027.99
2023-01-22T09:54:00.837Z,1027.91
2023-01-22T09:55:00.774Z,1027.99
2023-01-22T09:56:00.775Z,1027.97
2023-01-22T09:57:00.707Z,1028.05
2023-01-22T09:58:01.390Z,1028.06
2023-01-22T09:59:00.704Z,1028.01
2023-01-22T10:00:01.621Z,1028.06
2023-01-22T10:01:01.680Z,1028.03
2023-01-22T10:02:00.708Z,1028.05
2023-01-22T10:03:01.354Z,1027.97
2023-01-22T10:04:00.642Z,1028.01
2023-01-22T10:05:01.323Z,1028.01
2023-01-22T10:06:01.312Z,1027.98
2023-01-22T10:07:00.609Z,1028.03
2023-01-22T10:08:01.370Z,1028.05
2023-01-22T10:09:01.274Z,1028.04
2023-01-22T10:10:00.581Z,1027.98
2023-01-22T10:11:00.581Z,1027.99
2023-01-22T10:12:00.589Z,1028.02
2023-01-22T10:13:01.500Z,1027.95
2023-01-22T10:14:01.237Z,1028.02
2023-01-22T10:15:00.602Z,1027.96
2023-01-22T10:16:01.207Z,1027.95
2023-01-22T10:17:01.207Z,1027.95
2023-01-22T10:18:00.696Z,1027.92
2023-01-22T10:19:00.479Z,1027.93
2023-01-22T10:20:01.443Z,1027.92
2023-01-22T10:21:00.446Z,1027.93
2023-01-22T10:22:00.471Z,1028.01
2023-01-22T10:23:01.375Z,1027.93
2023-01-22T10:24:02.376Z,1027.94
2023-01-22T10:25:01.123Z,1027.96
2023-01-22T10:26:01.097Z,1027.92
2023-01-22T10:27:01.080Z,1027.91
2023-01-22T10:28:00.415Z,1027.90
2023-01-22T10:29:00.385Z,1027.94
2023-01-22T10:30:01.052Z,1027.91
2023-01-22T10:31:01.219Z,1027.93
2023-01-22T10:32:01.103Z,1027.90
2023-01-22T10:33:00.343Z,1027.93
2023-01-22T10:34:01.016Z,1027.93
2023-01-22T10:35:01.004Z,1027.94
2023-01-22T10:36:00.995Z,1027.89
2023-01-22T10:37:02.239Z,1027.91
2023-01-22T10:38:00.980Z,1027.94
2023-01-22T10:39:00.258Z,1027.91
2023-01-22T10:40:00.313Z,1027.83
2023-01-22T10:41:00.243Z,1027.87
2023-01-22T10:42:00.932Z,1027.83
2023-01-22T10:43:00.996Z,1027.86
2023-01-22T10:44:00.247Z,1027.84
2023-01-22T10:45:00.196Z,1027.85
2023-01-22T10:46:00.214Z,1027.87
2023-01-22T10:47:00.881Z,1027.88
2023-01-22T10:48:00.189Z,1027.83
2023-01-22T10:49:00.855Z,1027.87
2023-01-22T10:50:00.189Z,1027.88
2023-01-22T10:51:00.154Z,1027.93
2023-01-22T10:52:00.142Z,1027.86
2023-01-22T10:53:00.123Z,1027.92
2023-01-22T10:54:00.145Z,1027.86
2023-01-22T10:55:00.136Z,1027.84
2023-01-22T10:56:00.110Z,1027.84
2023-01-22T10:57:00.768Z,1027.80
2023-01-22T10:58:00.748Z,1027.77
2023-01-22T10:59:00.044Z,1027.82
2023-01-22T11:00:01.503Z,1027.87
2023-01-22T11:01:00.752Z,1027.78
2023-01-22T11:02:00.717Z,1027.81
2023-01-22T11:03:00.697Z,1027.78
2023-01-22T11:04:00.009Z,1027.78
2023-01-22T11:04:59.990Z,1027.78
2023-01-22T11:06:00.003Z,1027.71
2023-01-22T11:07:00.087Z,1027.74
2023-01-22T11:08:00.651Z,1027.68
2023-01-22T11:09:00.655Z,1027.69
2023-01-22T11:09:59.931Z,1027.71
2023-01-22T11:10:59.941Z,1027.70
2023-01-22T11:12:00.599Z,1027.72
2023-01-22T11:13:00.608Z,1027.69
2023-01-22T11:14:00.579Z,1027.68
2023-01-22T11:14:59.905Z,1027.79
2023-01-22T11:15:59.897Z,1027.81
2023-01-22T11:16:59.905Z,1027.74
2023-01-22T11:17:59.840Z,1027.78
2023-01-22T11:19:00.542Z,1027.73
2023-01-22T11:20:00.515Z,1027.72
2023-01-22T11:20:59.863Z,1027.69
2023-01-22T11:22:00.494Z,1027.78
2023-01-22T11:22:59.809Z,1027.74
2023-01-22T11:24:00.494Z,1027.73
2023-01-22T11:25:00.548Z,1027.74
2023-01-22T11:25:59.772Z,1027.75
2023-01-22T11:26:59.743Z,1027.74
2023-01-22T11:28:00.426Z,1027.63
2023-01-22T11:28:59.748Z,1027.65
2023-01-22T11:30:00.412Z,1027.63
2023-01-22T11:31:00.467Z,1027.61
2023-01-22T11:31:59.692Z,1027.65
2023-01-22T11:32:59.799Z,1027.60
2023-01-22T11:33:59.703Z,1027.60
2023-01-22T11:35:00.368Z,1027.70
2023-01-22T11:35:59.709Z,1027.66
2023-01-22T11:37:00.313Z,1027.64
2023-01-22T11:37:59.636Z,1027.64
2023-01-22T11:38:59.623Z,1027.61
2023-01-22T11:40:00.575Z,1027.62
2023-01-22T11:41:00.290Z,1027.58
2023-01-22T11:42:00.272Z,1027.61
2023-01-22T11:43:00.264Z,1027.61
2023-01-22T11:43:59.621Z,1027.60
2023-01-22T11:45:00.242Z,1027.58
2023-01-22T11:46:00.259Z,1027.61
2023-01-22T11:47:00.226Z,1027.57
2023-01-22T11:48:00.212Z,1027.62
2023-01-22T11:49:00.212Z,1027.56
2023-01-22T11:49:59.525Z,1027.58
2023-01-22T11:50:59.509Z,1027.54
2023-01-22T11:51:59.532Z,1027.61
2023-01-22T11:53:00.158Z,1027.59
2023-01-22T11:54:00.148Z,1027.54
2023-01-22T11:54:59.549Z,1027.54
2023-01-22T11:55:59.487Z,1027.57
2023-01-22T11:56:59.418Z,1027.59
2023-01-22T11:58:00.103Z,1027.60
2023-01-22T11:59:00.116Z,1027.71
2023-01-22T12:00:00.134Z,1027.63
2023-01-22T12:00:59.496Z,1027.61
2023-01-22T12:01:59.440Z,1027.63
2023-01-22T12:03:00.134Z,1027.66
2023-01-22T12:04:00.133Z,1027.61
2023-01-22T12:04:59.352Z,1027.64